Fountain Green, UT (84632)

08:38 MDT le 29 août 2015 (GMT -0600)
Mountain Dell Scout Ranch | | Change Station
CLOSE
Current Station
Stations météorologiques personnelles
Location: Mount Pleasant, UT
Altitude: 7480 ft
Stations météo à proximité

Alt. 7480 ft 39.50 °N, 111.39 °W | Updated 13 seconds ago

Ciel dégagé
Ciel dégagé
68.5 ° F
Paraît 68.5 ° F
N
3.0
Vent Variable Vent de SSE
Gusts 3.0 mph

Aujourd'hui
Haut(e) -- | Bas -- ° F
--% Risque de précip.
Hier
Haut(e) -- | Bas -- ° F
Precip. -- pouce
6:52 AM 8:02 PM
Pleine lune, 100% visible
Pression 30.01 pouce
Visibilité 10.0 Miles terrestres
Nuages Ciel dégagé
Point de rosée 33 ° F
Humidité 27%
Précipitations 0.00 pouce
Profondeur de la couche neigeuse Non disponible.
UV 1 sur 12
Pollen 9.30 sur 12
Qualité de l'air Non disponible.
Flu Activity Non disponible.
METAR KPUC 291353Z AUTO 00000KT 10SM CLR 19/03 A3027 RMK AO2 SLP163 T01890033
Pression 30.01 pouce
Visibilité 10.0 Miles terrestres
Nuages Ciel dégagé
Point de rosée 33 ° F
Humidité 27%
Précipitations 0.00 pouce
Profondeur de la couche neigeuse Non disponible.
UV 1 sur 12
Pollen 9.30 sur 12
Qualité de l'air Non disponible.
Flu Activity Non disponible.
METAR KPUC 291353Z AUTO 00000KT 10SM CLR 19/03 A3027 RMK AO2 SLP163 T01890033

10-Day Weather Forecast

×

Almanac

Astronomie

Aug. 29, 2015 Lever Coucher
Temps réel
Crépuscule civil
Crépuscule nautique
Crépuscule astronomique
Lune
Durée de lumière visible
Longueur du jour
Tomorrow will be .
, % of the Moon is Illuminated

Extrêmes aujourd'hui

State Highs State Lows

Community

WunderPhotos

Upload Photos

1,850,706 Photos téléchargées !

WunderBlogs® & News

Nearby

Qualité de l'air

  Qualité de l'air Indice de la qualité de l'air Polluant
Not available.

Épaisseur de neige

Station Depth Altitude

Activité sismique

Ville Distance Mag. Time & Date
Minimum magnitude displayed is 2.5.

Températures des eaux côtières

Lieu Température

Stations

Stations météo à proximité

Emplacement de la station Température Refroidissement éolien Point de rosée Humidité Vent Precip. Alt. Mise à jour Type